sensor_id;sensor_type;location;lat;lon;timestamp;P1;durP1;ratioP1;P2;durP2;ratioP2
39948;SDS011;29070;48.102;-1.652;2023-06-19T00:01:20;12.80;;;5.30;;
39948;SDS011;29070;48.102;-1.652;2023-06-19T00:06:20;15.80;;;5.97;;
39948;SDS011;29070;48.102;-1.652;2023-06-19T00:11:21;9.50;;;5.13;;
39948;SDS011;29070;48.102;-1.652;2023-06-19T00:16:21;11.27;;;5.40;;
39948;SDS011;29070;48.102;-1.652;2023-06-19T00:21:22;17.20;;;5.55;;
39948;SDS011;29070;48.102;-1.652;2023-06-19T00:26:25;11.82;;;5.80;;
39948;SDS011;29070;48.102;-1.652;2023-06-19T00:31:27;11.15;;;5.65;;
39948;SDS011;29070;48.102;-1.652;2023-06-19T00:36:27;9.53;;;5.37;;
39948;SDS011;29070;48.102;-1.652;2023-06-19T00:41:27;12.23;;;5.83;;
39948;SDS011;29070;48.102;-1.652;2023-06-19T00:46:30;16.25;;;6.05;;
39948;SDS011;29070;48.102;-1.652;2023-06-19T00:51:31;12.52;;;5.63;;
39948;SDS011;29070;48.102;-1.652;2023-06-19T00:56:31;11.57;;;6.17;;
39948;SDS011;29070;48.102;-1.652;2023-06-19T01:01:34;12.10;;;6.28;;
39948;SDS011;29070;48.102;-1.652;2023-06-19T01:06:46;15.20;;;6.20;;
39948;SDS011;29070;48.102;-1.652;2023-06-19T01:11:59;10.80;;;5.70;;
39948;SDS011;29070;48.102;-1.652;2023-06-19T01:17:06;13.82;;;6.55;;
39948;SDS011;29070;48.102;-1.652;2023-06-19T01:22:07;14.75;;;6.43;;
39948;SDS011;29070;48.102;-1.652;2023-06-19T01:27:07;15.03;;;6.30;;
39948;SDS011;29070;48.102;-1.652;2023-06-19T01:32:10;15.77;;;5.93;;
39948;SDS011;29070;48.102;-1.652;2023-06-19T01:37:15;12.95;;;5.13;;
39948;SDS011;29070;48.102;-1.652;2023-06-19T01:42:16;15.98;;;6.65;;
39948;SDS011;29070;48.102;-1.652;2023-06-19T01:47:17;13.35;;;6.13;;
39948;SDS011;29070;48.102;-1.652;2023-06-19T01:52:20;17.20;;;7.00;;
39948;SDS011;29070;48.102;-1.652;2023-06-19T01:57:20;13.75;;;6.60;;
39948;SDS011;29070;48.102;-1.652;2023-06-19T02:02:21;16.08;;;6.65;;
39948;SDS011;29070;48.102;-1.652;2023-06-19T02:07:21;19.60;;;7.20;;
39948;SDS011;29070;48.102;-1.652;2023-06-19T02:12:21;13.97;;;6.60;;
39948;SDS011;29070;48.102;-1.652;2023-06-19T02:17:22;10.95;;;6.13;;
39948;SDS011;29070;48.102;-1.652;2023-06-19T02:22:23;16.73;;;6.50;;
39948;SDS011;29070;48.102;-1.652;2023-06-19T02:27:23;11.77;;;6.18;;
39948;SDS011;29070;48.102;-1.652;2023-06-19T02:32:24;17.70;;;6.28;;
39948;SDS011;29070;48.102;-1.652;2023-06-19T02:37:25;12.75;;;6.32;;
39948;SDS011;29070;48.102;-1.652;2023-06-19T02:42:25;12.83;;;6.87;;
39948;SDS011;29070;48.102;-1.652;2023-06-19T02:47:25;11.63;;;6.40;;
39948;SDS011;29070;48.102;-1.652;2023-06-19T02:52:26;16.17;;;6.60;;
39948;SDS011;29070;48.102;-1.652;2023-06-19T02:57:27;17.90;;;7.82;;
39948;SDS011;29070;48.102;-1.652;2023-06-19T03:02:27;14.87;;;7.00;;
39948;SDS011;29070;48.102;-1.652;2023-06-19T03:07:27;15.33;;;7.10;;
39948;SDS011;29070;48.102;-1.652;2023-06-19T03:12:28;17.88;;;6.90;;
39948;SDS011;29070;48.102;-1.652;2023-06-19T03:17:28;16.20;;;7.33;;
39948;SDS011;29070;48.102;-1.652;2023-06-19T03:22:29;14.13;;;7.33;;
39948;SDS011;29070;48.102;-1.652;2023-06-19T03:27:29;18.00;;;7.30;;
39948;SDS011;29070;48.102;-1.652;2023-06-19T03:32:30;18.15;;;7.22;;
39948;SDS011;29070;48.102;-1.652;2023-06-19T03:37:30;14.57;;;7.30;;
39948;SDS011;29070;48.102;-1.652;2023-06-19T03:42:32;20.92;;;7.93;;
39948;SDS011;29070;48.102;-1.652;2023-06-19T03:47:34;20.35;;;8.77;;
39948;SDS011;29070;48.102;-1.652;2023-06-19T03:52:34;22.47;;;8.17;;
39948;SDS011;29070;48.102;-1.652;2023-06-19T03:57:34;20.30;;;8.13;;
39948;SDS011;29070;48.102;-1.652;2023-06-19T04:02:35;18.23;;;8.83;;
39948;SDS011;29070;48.102;-1.652;2023-06-19T04:07:35;18.83;;;8.67;;
39948;SDS011;29070;48.102;-1.652;2023-06-19T04:12:37;17.83;;;8.38;;
39948;SDS011;29070;48.102;-1.652;2023-06-19T04:17:37;16.88;;;8.05;;
39948;SDS011;29070;48.102;-1.652;2023-06-19T04:22:38;18.98;;;8.32;;
39948;SDS011;29070;48.102;-1.652;2023-06-19T04:27:39;23.02;;;8.80;;
39948;SDS011;29070;48.102;-1.652;2023-06-19T04:32:40;23.17;;;8.77;;
39948;SDS011;29070;48.102;-1.652;2023-06-19T04:37:40;22.88;;;8.93;;
39948;SDS011;29070;48.102;-1.652;2023-06-19T04:42:41;23.47;;;9.17;;
39948;SDS011;29070;48.102;-1.652;2023-06-19T04:47:41;29.30;;;9.93;;
39948;SDS011;29070;48.102;-1.652;2023-06-19T04:52:44;21.67;;;9.60;;
39948;SDS011;29070;48.102;-1.652;2023-06-19T04:57:44;26.20;;;10.70;;
39948;SDS011;29070;48.102;-1.652;2023-06-19T05:02:45;23.50;;;9.40;;
39948;SDS011;29070;48.102;-1.652;2023-06-19T05:07:47;26.58;;;10.10;;
39948;SDS011;29070;48.102;-1.652;2023-06-19T05:12:47;31.33;;;11.30;;
39948;SDS011;29070;48.102;-1.652;2023-06-19T05:17:48;22.38;;;10.70;;
39948;SDS011;29070;48.102;-1.652;2023-06-19T05:22:48;25.77;;;11.03;;
39948;SDS011;29070;48.102;-1.652;2023-06-19T05:27:48;29.93;;;11.03;;
39948;SDS011;29070;48.102;-1.652;2023-06-19T05:32:49;28.37;;;12.23;;
39948;SDS011;29070;48.102;-1.652;2023-06-19T05:37:49;39.47;;;12.80;;
39948;SDS011;29070;48.102;-1.652;2023-06-19T05:42:49;26.47;;;10.30;;
39948;SDS011;29070;48.102;-1.652;2023-06-19T05:47:50;26.90;;;10.60;;
39948;SDS011;29070;48.102;-1.652;2023-06-19T05:52:50;22.23;;;8.93;;
39948;SDS011;29070;48.102;-1.652;2023-06-19T05:57:50;24.43;;;9.53;;
39948;SDS011;29070;48.102;-1.652;2023-06-19T06:02:51;25.47;;;9.13;;
39948;SDS011;29070;48.102;-1.652;2023-06-19T06:07:52;25.15;;;9.32;;
39948;SDS011;29070;48.102;-1.652;2023-06-19T06:12:53;26.05;;;10.52;;
39948;SDS011;29070;48.102;-1.652;2023-06-19T06:17:53;21.17;;;10.17;;
39948;SDS011;29070;48.102;-1.652;2023-06-19T06:22:53;24.87;;;10.00;;
39948;SDS011;29070;48.102;-1.652;2023-06-19T06:27:54;20.35;;;8.68;;
39948;SDS011;29070;48.102;-1.652;2023-06-19T06:32:54;19.83;;;8.63;;
39948;SDS011;29070;48.102;-1.652;2023-06-19T06:37:55;17.70;;;8.10;;
39948;SDS011;29070;48.102;-1.652;2023-06-19T06:42:55;22.43;;;8.90;;
39948;SDS011;29070;48.102;-1.652;2023-06-19T06:47:55;22.90;;;9.57;;
39948;SDS011;29070;48.102;-1.652;2023-06-19T06:52:56;24.07;;;9.40;;
39948;SDS011;29070;48.102;-1.652;2023-06-19T06:57:56;25.10;;;9.47;;
39948;SDS011;29070;48.102;-1.652;2023-06-19T07:02:57;18.55;;;7.93;;
39948;SDS011;29070;48.102;-1.652;2023-06-19T07:07:58;20.37;;;8.53;;
39948;SDS011;29070;48.102;-1.652;2023-06-19T07:12:58;20.17;;;8.50;;
39948;SDS011;29070;48.102;-1.652;2023-06-19T07:17:58;21.27;;;8.23;;
39948;SDS011;29070;48.102;-1.652;2023-06-19T07:22:59;21.03;;;8.33;;
39948;SDS011;29070;48.102;-1.652;2023-06-19T07:28:00;22.70;;;9.52;;
39948;SDS011;29070;48.102;-1.652;2023-06-19T07:33:01;20.55;;;9.98;;
39948;SDS011;29070;48.102;-1.652;2023-06-19T07:38:01;24.73;;;9.60;;
39948;SDS011;29070;48.102;-1.652;2023-06-19T07:43:01;19.90;;;8.90;;
39948;SDS011;29070;48.102;-1.652;2023-06-19T07:48:02;21.13;;;8.00;;
39948;SDS011;29070;48.102;-1.652;2023-06-19T07:53:02;16.77;;;8.20;;
39948;SDS011;29070;48.102;-1.652;2023-06-19T07:58:03;19.03;;;8.40;;
39948;SDS011;29070;48.102;-1.652;2023-06-19T08:03:04;13.13;;;7.10;;
39948;SDS011;29070;48.102;-1.652;2023-06-19T08:08:04;19.73;;;8.40;;
39948;SDS011;29070;48.102;-1.652;2023-06-19T08:13:05;17.37;;;8.13;;
39948;SDS011;29070;48.102;-1.652;2023-06-19T08:18:05;15.43;;;7.07;;
39948;SDS011;29070;48.102;-1.652;2023-06-19T08:23:05;14.10;;;7.03;;
39948;SDS011;29070;48.102;-1.652;2023-06-19T08:28:06;16.90;;;6.60;;
39948;SDS011;29070;48.102;-1.652;2023-06-19T08:33:06;17.20;;;6.85;;
39948;SDS011;29070;48.102;-1.652;2023-06-19T08:38:06;10.83;;;5.70;;
39948;SDS011;29070;48.102;-1.652;2023-06-19T08:43:07;13.27;;;6.10;;
39948;SDS011;29070;48.102;-1.652;2023-06-19T08:48:07;9.03;;;5.13;;
39948;SDS011;29070;48.102;-1.652;2023-06-19T08:53:13;10.18;;;4.75;;
39948;SDS011;29070;48.102;-1.652;2023-06-19T08:58:20;9.80;;;4.17;;
39948;SDS011;29070;48.102;-1.652;2023-06-19T09:03:23;9.07;;;3.60;;
39948;SDS011;29070;48.102;-1.652;2023-06-19T09:08:23;9.50;;;4.32;;
39948;SDS011;29070;48.102;-1.652;2023-06-19T09:13:23;7.47;;;4.00;;
39948;SDS011;29070;48.102;-1.652;2023-06-19T09:18:24;5.63;;;3.27;;
39948;SDS011;29070;48.102;-1.652;2023-06-19T09:23:24;8.47;;;3.70;;
39948;SDS011;29070;48.102;-1.652;2023-06-19T09:28:26;7.57;;;3.70;;
39948;SDS011;29070;48.102;-1.652;2023-06-19T09:33:31;6.60;;;3.38;;
39948;SDS011;29070;48.102;-1.652;2023-06-19T09:38:34;9.20;;;3.55;;
39948;SDS011;29070;48.102;-1.652;2023-06-19T09:43:44;9.60;;;3.30;;
39948;SDS011;29070;48.102;-1.652;2023-06-19T09:48:47;4.18;;;3.03;;
39948;SDS011;29070;48.102;-1.652;2023-06-19T09:53:52;8.82;;;3.88;;
39948;SDS011;29070;48.102;-1.652;2023-06-19T09:58:54;6.38;;;3.53;;
39948;SDS011;29070;48.102;-1.652;2023-06-19T10:04:07;8.40;;;4.32;;
39948;SDS011;29070;48.102;-1.652;2023-06-19T10:09:08;7.15;;;3.88;;
39948;SDS011;29070;48.102;-1.652;2023-06-19T10:14:10;10.10;;;4.13;;
39948;SDS011;29070;48.102;-1.652;2023-06-19T10:19:17;8.47;;;3.30;;
39948;SDS011;29070;48.102;-1.652;2023-06-19T10:24:20;11.73;;;3.58;;
39948;SDS011;29070;48.102;-1.652;2023-06-19T10:29:24;6.82;;;3.80;;
39948;SDS011;29070;48.102;-1.652;2023-06-19T10:34:34;7.15;;;4.20;;
39948;SDS011;29070;48.102;-1.652;2023-06-19T10:39:35;5.72;;;2.70;;
39948;SDS011;29070;48.102;-1.652;2023-06-19T10:44:36;6.77;;;2.70;;
39948;SDS011;29070;48.102;-1.652;2023-06-19T10:49:39;5.63;;;2.95;;
39948;SDS011;29070;48.102;-1.652;2023-06-19T10:54:39;6.83;;;2.73;;
39948;SDS011;29070;48.102;-1.652;2023-06-19T10:59:39;7.23;;;2.97;;
39948;SDS011;29070;48.102;-1.652;2023-06-19T11:04:40;6.40;;;2.80;;
39948;SDS011;29070;48.102;-1.652;2023-06-19T11:09:40;7.83;;;3.20;;
39948;SDS011;29070;48.102;-1.652;2023-06-19T11:14:40;6.93;;;3.47;;
39948;SDS011;29070;48.102;-1.652;2023-06-19T11:19:42;8.63;;;3.65;;
39948;SDS011;29070;48.102;-1.652;2023-06-19T11:24:47;6.90;;;3.33;;
39948;SDS011;29070;48.102;-1.652;2023-06-19T11:29:54;7.90;;;3.28;;
39948;SDS011;29070;48.102;-1.652;2023-06-19T11:34:55;6.03;;;3.25;;
39948;SDS011;29070;48.102;-1.652;2023-06-19T11:39:55;6.23;;;2.60;;
39948;SDS011;29070;48.102;-1.652;2023-06-19T11:44:59;4.80;;;2.55;;
39948;SDS011;29070;48.102;-1.652;2023-06-19T11:50:04;6.57;;;2.25;;
39948;SDS011;29070;48.102;-1.652;2023-06-19T11:55:05;4.80;;;2.28;;
39948;SDS011;29070;48.102;-1.652;2023-06-19T12:00:12;4.22;;;2.65;;
39948;SDS011;29070;48.102;-1.652;2023-06-19T12:05:16;6.15;;;2.47;;
39948;SDS011;29070;48.102;-1.652;2023-06-19T12:10:17;4.28;;;2.47;;
39948;SDS011;29070;48.102;-1.652;2023-06-19T12:15:17;4.80;;;2.47;;
39948;SDS011;29070;48.102;-1.652;2023-06-19T12:20:18;4.50;;;2.23;;
39948;SDS011;29070;48.102;-1.652;2023-06-19T12:25:18;4.47;;;2.20;;
39948;SDS011;29070;48.102;-1.652;2023-06-19T12:30:19;3.13;;;1.93;;
39948;SDS011;29070;48.102;-1.652;2023-06-19T12:35:19;7.03;;;2.40;;
39948;SDS011;29070;48.102;-1.652;2023-06-19T12:40:20;5.65;;;2.50;;
39948;SDS011;29070;48.102;-1.652;2023-06-19T12:45:21;6.30;;;3.03;;
39948;SDS011;29070;48.102;-1.652;2023-06-19T12:50:21;3.67;;;2.03;;
39948;SDS011;29070;48.102;-1.652;2023-06-19T12:55:22;4.75;;;2.17;;
39948;SDS011;29070;48.102;-1.652;2023-06-19T13:00:22;5.17;;;2.40;;
39948;SDS011;29070;48.102;-1.652;2023-06-19T13:05:22;3.37;;;2.03;;
39948;SDS011;29070;48.102;-1.652;2023-06-19T13:10:23;4.63;;;2.20;;
39948;SDS011;29070;48.102;-1.652;2023-06-19T13:15:23;3.90;;;2.50;;
39948;SDS011;29070;48.102;-1.652;2023-06-19T13:20:24;5.00;;;2.08;;
39948;SDS011;29070;48.102;-1.652;2023-06-19T13:25:24;4.73;;;2.40;;
39948;SDS011;29070;48.102;-1.652;2023-06-19T13:30:25;5.28;;;2.40;;
39948;SDS011;29070;48.102;-1.652;2023-06-19T13:35:26;3.97;;;2.17;;
39948;SDS011;29070;48.102;-1.652;2023-06-19T13:40:26;6.93;;;2.57;;
39948;SDS011;29070;48.102;-1.652;2023-06-19T13:45:26;4.73;;;2.23;;
39948;SDS011;29070;48.102;-1.652;2023-06-19T13:50:28;4.18;;;2.15;;
39948;SDS011;29070;48.102;-1.652;2023-06-19T13:55:28;6.83;;;2.17;;
39948;SDS011;29070;48.102;-1.652;2023-06-19T14:00:29;3.97;;;2.00;;
39948;SDS011;29070;48.102;-1.652;2023-06-19T14:05:29;3.83;;;1.90;;
39948;SDS011;29070;48.102;-1.652;2023-06-19T14:10:29;4.67;;;2.30;;
39948;SDS011;29070;48.102;-1.652;2023-06-19T14:15:30;6.00;;;2.20;;
39948;SDS011;29070;48.102;-1.652;2023-06-19T14:20:30;5.73;;;2.50;;
39948;SDS011;29070;48.102;-1.652;2023-06-19T14:25:31;9.55;;;2.67;;
39948;SDS011;29070;48.102;-1.652;2023-06-19T14:30:31;5.13;;;2.67;;
39948;SDS011;29070;48.102;-1.652;2023-06-19T14:35:31;4.13;;;1.90;;
39948;SDS011;29070;48.102;-1.652;2023-06-19T14:40:32;5.50;;;2.30;;
39948;SDS011;29070;48.102;-1.652;2023-06-19T14:45:32;5.40;;;2.30;;
39948;SDS011;29070;48.102;-1.652;2023-06-19T14:50:33;4.67;;;2.27;;
39948;SDS011;29070;48.102;-1.652;2023-06-19T14:55:35;4.10;;;2.63;;
39948;SDS011;29070;48.102;-1.652;2023-06-19T15:00:35;5.17;;;2.13;;
39948;SDS011;29070;48.102;-1.652;2023-06-19T15:05:38;4.55;;;2.38;;
39948;SDS011;29070;48.102;-1.652;2023-06-19T15:10:38;4.05;;;2.15;;
39948;SDS011;29070;48.102;-1.652;2023-06-19T15:15:39;4.03;;;2.20;;
39948;SDS011;29070;48.102;-1.652;2023-06-19T15:20:40;3.45;;;2.33;;
39948;SDS011;29070;48.102;-1.652;2023-06-19T15:25:40;3.97;;;2.30;;
39948;SDS011;29070;48.102;-1.652;2023-06-19T15:30:40;4.90;;;2.60;;
39948;SDS011;29070;48.102;-1.652;2023-06-19T15:35:41;4.77;;;2.53;;
39948;SDS011;29070;48.102;-1.652;2023-06-19T15:40:41;4.40;;;2.20;;
39948;SDS011;29070;48.102;-1.652;2023-06-19T15:45:41;4.53;;;2.33;;
39948;SDS011;29070;48.102;-1.652;2023-06-19T15:50:42;6.87;;;2.90;;
39948;SDS011;29070;48.102;-1.652;2023-06-19T15:55:42;5.63;;;3.20;;
39948;SDS011;29070;48.102;-1.652;2023-06-19T16:00:43;4.90;;;2.80;;
39948;SDS011;29070;48.102;-1.652;2023-06-19T16:05:43;6.00;;;3.13;;
39948;SDS011;29070;48.102;-1.652;2023-06-19T16:10:45;5.15;;;2.75;;
39948;SDS011;29070;48.102;-1.652;2023-06-19T16:15:46;3.60;;;2.40;;
39948;SDS011;29070;48.102;-1.652;2023-06-19T16:20:46;3.70;;;2.57;;
39948;SDS011;29070;48.102;-1.652;2023-06-19T16:25:46;7.57;;;2.87;;
39948;SDS011;29070;48.102;-1.652;2023-06-19T16:30:47;4.53;;;2.77;;
39948;SDS011;29070;48.102;-1.652;2023-06-19T16:35:47;4.50;;;2.77;;
39948;SDS011;29070;48.102;-1.652;2023-06-19T16:40:47;5.70;;;2.93;;
39948;SDS011;29070;48.102;-1.652;2023-06-19T16:45:48;5.97;;;3.03;;
39948;SDS011;29070;48.102;-1.652;2023-06-19T16:50:48;6.60;;;3.20;;
39948;SDS011;29070;48.102;-1.652;2023-06-19T16:55:48;6.80;;;3.17;;
39948;SDS011;29070;48.102;-1.652;2023-06-19T17:00:49;4.80;;;2.80;;
39948;SDS011;29070;48.102;-1.652;2023-06-19T17:05:51;6.95;;;3.17;;
39948;SDS011;29070;48.102;-1.652;2023-06-19T17:10:51;4.73;;;2.90;;
39948;SDS011;29070;48.102;-1.652;2023-06-19T17:15:52;4.47;;;2.90;;
39948;SDS011;29070;48.102;-1.652;2023-06-19T17:20:52;5.07;;;3.17;;
39948;SDS011;29070;48.102;-1.652;2023-06-19T17:25:52;5.90;;;3.17;;
39948;SDS011;29070;48.102;-1.652;2023-06-19T17:30:53;6.17;;;2.80;;
39948;SDS011;29070;48.102;-1.652;2023-06-19T17:35:53;5.90;;;2.70;;
39948;SDS011;29070;48.102;-1.652;2023-06-19T17:40:53;7.40;;;3.43;;
39948;SDS011;29070;48.102;-1.652;2023-06-19T17:45:54;5.07;;;3.03;;
39948;SDS011;29070;48.102;-1.652;2023-06-19T17:50:54;4.53;;;2.70;;
39948;SDS011;29070;48.102;-1.652;2023-06-19T17:55:55;4.77;;;2.70;;
39948;SDS011;29070;48.102;-1.652;2023-06-19T18:00:55;6.87;;;2.60;;
39948;SDS011;29070;48.102;-1.652;2023-06-19T18:05:55;3.73;;;2.43;;
39948;SDS011;29070;48.102;-1.652;2023-06-19T18:10:56;4.87;;;2.60;;
39948;SDS011;29070;48.102;-1.652;2023-06-19T18:15:57;5.55;;;2.67;;
39948;SDS011;29070;48.102;-1.652;2023-06-19T18:20:58;4.83;;;2.67;;
39948;SDS011;29070;48.102;-1.652;2023-06-19T18:25:58;5.00;;;2.73;;
39948;SDS011;29070;48.102;-1.652;2023-06-19T18:30:58;5.03;;;2.80;;
39948;SDS011;29070;48.102;-1.652;2023-06-19T18:35:59;5.27;;;2.90;;
39948;SDS011;29070;48.102;-1.652;2023-06-19T18:40:59;5.40;;;3.17;;
39948;SDS011;29070;48.102;-1.652;2023-06-19T18:45:59;6.33;;;2.93;;
39948;SDS011;29070;48.102;-1.652;2023-06-19T18:51:00;6.03;;;3.40;;
39948;SDS011;29070;48.102;-1.652;2023-06-19T18:56:00;4.07;;;2.80;;
39948;SDS011;29070;48.102;-1.652;2023-06-19T19:01:00;6.57;;;3.33;;
39948;SDS011;29070;48.102;-1.652;2023-06-19T19:06:01;7.23;;;3.17;;
39948;SDS011;29070;48.102;-1.652;2023-06-19T19:11:02;5.80;;;3.38;;
39948;SDS011;29070;48.102;-1.652;2023-06-19T19:16:02;6.70;;;3.60;;
39948;SDS011;29070;48.102;-1.652;2023-06-19T19:21:02;6.30;;;3.30;;
39948;SDS011;29070;48.102;-1.652;2023-06-19T19:26:03;6.13;;;3.67;;
39948;SDS011;29070;48.102;-1.652;2023-06-19T19:31:05;5.35;;;3.05;;
39948;SDS011;29070;48.102;-1.652;2023-06-19T19:36:05;8.40;;;3.15;;
39948;SDS011;29070;48.102;-1.652;2023-06-19T19:41:07;6.47;;;3.08;;
39948;SDS011;29070;48.102;-1.652;2023-06-19T19:46:07;6.10;;;3.10;;
39948;SDS011;29070;48.102;-1.652;2023-06-19T19:51:08;5.20;;;3.00;;
39948;SDS011;29070;48.102;-1.652;2023-06-19T19:56:11;4.97;;;2.95;;
39948;SDS011;29070;48.102;-1.652;2023-06-19T20:01:11;6.87;;;3.40;;
39948;SDS011;29070;48.102;-1.652;2023-06-19T20:06:11;5.50;;;2.90;;
39948;SDS011;29070;48.102;-1.652;2023-06-19T20:11:12;4.40;;;2.93;;
39948;SDS011;29070;48.102;-1.652;2023-06-19T20:16:12;5.53;;;2.85;;
39948;SDS011;29070;48.102;-1.652;2023-06-19T20:21:13;4.93;;;2.90;;
39948;SDS011;29070;48.102;-1.652;2023-06-19T20:26:13;6.93;;;2.80;;
39948;SDS011;29070;48.102;-1.652;2023-06-19T20:31:14;5.43;;;3.50;;
39948;SDS011;29070;48.102;-1.652;2023-06-19T20:36:16;4.80;;;3.20;;
39948;SDS011;29070;48.102;-1.652;2023-06-19T20:41:16;6.90;;;3.45;;
39948;SDS011;29070;48.102;-1.652;2023-06-19T20:46:17;5.17;;;3.33;;
39948;SDS011;29070;48.102;-1.652;2023-06-19T20:51:18;5.63;;;3.37;;
39948;SDS011;29070;48.102;-1.652;2023-06-19T20:56:20;5.75;;;3.03;;
39948;SDS011;29070;48.102;-1.652;2023-06-19T21:01:21;6.93;;;3.33;;
39948;SDS011;29070;48.102;-1.652;2023-06-19T21:06:22;5.50;;;3.38;;
39948;SDS011;29070;48.102;-1.652;2023-06-19T21:11:22;7.00;;;3.30;;
39948;SDS011;29070;48.102;-1.652;2023-06-19T21:16:23;5.03;;;3.60;;
39948;SDS011;29070;48.102;-1.652;2023-06-19T21:21:24;5.57;;;3.55;;
39948;SDS011;29070;48.102;-1.652;2023-06-19T21:26:24;4.70;;;3.13;;
39948;SDS011;29070;48.102;-1.652;2023-06-19T21:31:25;4.87;;;3.27;;
39948;SDS011;29070;48.102;-1.652;2023-06-19T21:36:25;5.37;;;3.50;;
39948;SDS011;29070;48.102;-1.652;2023-06-19T21:41:26;4.82;;;3.28;;
39948;SDS011;29070;48.102;-1.652;2023-06-19T21:46:26;5.23;;;3.47;;
39948;SDS011;29070;48.102;-1.652;2023-06-19T21:51:27;5.30;;;3.60;;
39948;SDS011;29070;48.102;-1.652;2023-06-19T21:56:27;6.00;;;3.50;;
39948;SDS011;29070;48.102;-1.652;2023-06-19T22:01:27;7.32;;;4.35;;
39948;SDS011;29070;48.102;-1.652;2023-06-19T22:06:28;5.37;;;3.60;;
39948;SDS011;29070;48.102;-1.652;2023-06-19T22:11:28;4.97;;;3.33;;
39948;SDS011;29070;48.102;-1.652;2023-06-19T22:16:29;7.55;;;4.15;;
39948;SDS011;29070;48.102;-1.652;2023-06-19T22:21:29;5.80;;;3.63;;
39948;SDS011;29070;48.102;-1.652;2023-06-19T22:26:29;6.77;;;3.77;;
39948;SDS011;29070;48.102;-1.652;2023-06-19T22:31:36;5.22;;;3.53;;
39948;SDS011;29070;48.102;-1.652;2023-06-19T22:36:37;7.80;;;3.70;;
39948;SDS011;29070;48.102;-1.652;2023-06-19T22:41:37;5.22;;;3.20;;
39948;SDS011;29070;48.102;-1.652;2023-06-19T22:46:38;5.97;;;3.20;;
39948;SDS011;29070;48.102;-1.652;2023-06-19T22:51:39;4.85;;;3.15;;
39948;SDS011;29070;48.102;-1.652;2023-06-19T22:56:39;4.15;;;3.08;;
39948;SDS011;29070;48.102;-1.652;2023-06-19T23:01:40;4.63;;;2.90;;
39948;SDS011;29070;48.102;-1.652;2023-06-19T23:06:40;4.43;;;3.13;;
39948;SDS011;29070;48.102;-1.652;2023-06-19T23:11:44;6.32;;;2.92;;
39948;SDS011;29070;48.102;-1.652;2023-06-19T23:16:48;5.35;;;2.90;;
39948;SDS011;29070;48.102;-1.652;2023-06-19T23:21:49;5.57;;;2.88;;
39948;SDS011;29070;48.102;-1.652;2023-06-19T23:26:49;4.33;;;2.57;;
39948;SDS011;29070;48.102;-1.652;2023-06-19T23:31:49;5.17;;;2.50;;
39948;SDS011;29070;48.102;-1.652;2023-06-19T23:36:50;4.53;;;2.80;;
39948;SDS011;29070;48.102;-1.652;2023-06-19T23:41:51;3.15;;;2.50;;
39948;SDS011;29070;48.102;-1.652;2023-06-19T23:46:51;5.30;;;2.97;;
39948;SDS011;29070;48.102;-1.652;2023-06-19T23:51:52;4.70;;;2.77;;
39948;SDS011;29070;48.102;-1.652;2023-06-19T23:56:52;6.90;;;3.30;;
